Elwood, IN

4:19 PM EDT on September 02, 2014 (GMT -0400)
Linwood, IN | Change Station
CLOSE
Current Station
Personal Weather Station
Location: Anderson, IN
Elevation: 895 ft
Nearby Weather Stations

Elev 895 ft 40.19 °N, 85.69 °W | Updated 2 seconds ago

Mostly Cloudy
Mostly Cloudy
74.7 °F
Feels Like 75 °F
N
10.0
Wind Variable Wind from West
Gusts 10.0 mph

Today
High -- | Low -- °F
--% Chance of Precip.
Yesterday
High -- | Low -- °F
Precip. -- in
7:11 AM 8:13 PM
First Quarter, 54% visible
Pressure 29.97 in
Visibility 10.0 miles
Clouds Mostly Cloudy 2500 ft
Heat Index 75 °F
Dew Point 68 °F
Humidity 79%
Rainfall 0.42 in
Snow Depth Not available.
UV 2.3 out of 12
Pollen 4.10 out of 12
Ozone Good
PM2.5 Good
Flu Activity Not available.
METAR KAID 021955Z 27010KT 10SM BKN025 24/20 A2997

More Conditions Fewer Conditions

Pressure 29.97 in
Visibility 10.0 miles
Clouds Mostly Cloudy 2500 ft
Heat Index 75 °F
Dew Point 68 °F
Humidity 79%
Rainfall 0.42 in
Snow Depth Not available.
UV 2.3 out of 12
Pollen 4.10 out of 12
Ozone Good
PM2.5 Good
Flu Activity Not available.
METAR KAID 021955Z 27010KT 10SM BKN025 24/20 A2997

More Conditions Fewer Conditions

10-Day Weather Forecast

Almanac

Astronomy

Sep. 02, 2014 Rise Set
Actual Time 7:11 AM EDT 8:13 PM EDT
Civil Twilight 6:43 AM EDT 8:41 PM EDT
Nautical Twilight 6:10 AM EDT 9:14 PM EDT
Astronomical Twilight 5:36 AM EDT 9:48 PM EDT
Moon 2:56 PM EDT 12:14 AM EDT
Length of Visible Light 13h 57m
Length of Day
13h 01m
Tomorrow will be 2m 35s shorter.
First Quarter, 54% of the Moon is Illuminated
Today
First Quarter
Sep 8
Full
Sep 15
Last Quarter
Sep 24
New
Oct 1
First Quarter

Today's Extremes

State Highs State Lows

Community

WunderPhotos

Upload Photos

1,749,752 photos uploaded!

WunderBlogs® & News

By Dr. Jeff Masters
Director of Meteorology, Weather Underground
By Kari Strenfel
Meteorologist, Weather Underground
By Christopher C. Burt
Weather Historian, Weather Underground
September 2, 2014
September 2, 2014
September 2, 2014

Nearby

Air Quality

  Air Quality AQ Index Pollutant
Yesterday Good
PM2.5
Yesterday Good
OZONE
Current Good
OZONE
Current Good
PM2.5
Tuesday Moderate
PM2.5
Tuesday Good
OZONE
Wednesday Moderate
OZONE
Wednesday Good
PM2.5
Thursday Moderate
PM2.5
Thursday Good
OZONE
Friday Moderate
PM2.5
Friday Good
OZONE

Snow Depth

Station Depth Elevation
No new snow has been reported.

Earthquake Activity

City Distance Mag. Time & Date
No recent earthquake activity has been reported nearby.
Minimum magnitude displayed is 2.5.

Coastal Water Temperatures

Place Temperature
No Stations Reporting

Nearby Weather Stations